createdAt,value
2024-02-06T00:03:19.989Z,1.38
2024-02-06T00:07:28.985Z,1.70
2024-02-06T00:11:34.811Z,1.10
2024-02-06T00:15:36.595Z,2.03
2024-02-06T00:19:38.550Z,1.55
2024-02-06T00:23:40.684Z,2.13
2024-02-06T00:27:42.736Z,1.30
2024-02-06T00:31:44.773Z,1.45
2024-02-06T00:35:46.562Z,1.58
2024-02-06T00:39:48.357Z,1.40
2024-02-06T00:43:51.144Z,1.40
2024-02-06T00:47:54.192Z,1.15
2024-02-06T00:51:56.643Z,1.13
2024-02-06T00:55:58.393Z,1.33
2024-02-06T01:00:00.400Z,1.35
2024-02-06T01:04:02.310Z,1.85
2024-02-06T01:08:04.912Z,2.20
2024-02-06T01:12:07.394Z,1.70
2024-02-06T01:16:09.376Z,2.53
2024-02-06T01:20:15.307Z,2.17
2024-02-06T01:24:17.159Z,2.60
2024-02-06T01:28:19.568Z,2.40
2024-02-06T01:32:21.715Z,2.40
2024-02-06T01:36:23.925Z,2.33
2024-02-06T01:40:25.974Z,2.30
2024-02-06T01:44:29.101Z,2.43
2024-02-06T01:48:31.888Z,2.63
2024-02-06T01:52:34.923Z,2.47
2024-02-06T02:00:40.568Z,3.13
2024-02-06T02:04:42.682Z,2.40
2024-02-06T02:08:46.642Z,3.23
2024-02-06T02:12:48.687Z,3.10
2024-02-06T02:16:50.542Z,2.35
2024-02-06T02:20:52.300Z,2.40
2024-02-06T02:24:54.429Z,2.10
2024-02-06T02:28:56.641Z,2.47
2024-02-06T02:32:59.798Z,2.40
2024-02-06T02:37:01.876Z,2.33
2024-02-06T02:41:04.473Z,2.42
2024-02-06T02:45:06.842Z,2.83
2024-02-06T02:49:08.718Z,2.40
2024-02-06T02:53:10.479Z,3.00
2024-02-06T02:57:14.112Z,2.85
2024-02-06T03:01:16.195Z,4.45
2024-02-06T03:05:18.758Z,2.93
2024-02-06T03:09:21.025Z,2.58
2024-02-06T03:13:23.396Z,2.97
2024-02-06T03:17:25.445Z,2.75
2024-02-06T03:21:27.470Z,3.15
2024-02-06T03:25:31.933Z,2.85
2024-02-06T03:29:34.456Z,2.85
2024-02-06T03:33:38.056Z,2.50
2024-02-06T03:37:40.346Z,2.85
2024-02-06T03:41:42.331Z,3.23
2024-02-06T03:45:44.401Z,2.40
2024-02-06T03:49:46.371Z,2.92
2024-02-06T03:53:48.437Z,2.80
2024-02-06T03:57:50.765Z,2.17
2024-02-06T04:01:52.779Z,2.58
2024-02-06T04:05:54.945Z,2.78
2024-02-06T04:09:56.725Z,2.60
2024-02-06T04:13:59.305Z,3.20
2024-02-06T04:18:01.581Z,2.88
2024-02-06T04:22:04.165Z,2.15
2024-02-06T04:26:07.119Z,2.60
2024-02-06T04:30:11.191Z,2.38
2024-02-06T04:34:13.621Z,2.22
2024-02-06T04:38:15.951Z,2.38
2024-02-06T04:42:17.775Z,2.97
2024-02-06T04:46:19.913Z,2.50
2024-02-06T04:50:23.079Z,2.70
2024-02-06T04:54:25.020Z,2.33
2024-02-06T04:58:27.254Z,2.63
2024-02-06T05:02:29.143Z,2.53
2024-02-06T05:06:31.297Z,2.28
2024-02-06T05:10:33.275Z,1.70
2024-02-06T05:14:35.553Z,2.85
2024-02-06T05:18:37.698Z,3.10
2024-02-06T05:22:40.510Z,2.63
2024-02-06T05:26:42.604Z,2.70
2024-02-06T05:30:44.464Z,2.57
2024-02-06T05:34:46.540Z,4.20
2024-02-06T05:38:48.490Z,3.10
2024-02-06T05:42:50.589Z,3.65
2024-02-06T05:46:52.614Z,3.40
2024-02-06T05:50:55.110Z,2.80
2024-02-06T05:54:57.366Z,3.30
2024-02-06T05:59:01.076Z,3.60
2024-02-06T06:03:04.241Z,3.47
2024-02-06T06:07:06.506Z,2.70
2024-02-06T06:11:08.457Z,3.27
2024-02-06T06:15:10.575Z,2.80
2024-02-06T06:19:12.515Z,3.33
2024-02-06T06:23:15.796Z,3.40
2024-02-06T06:27:18.649Z,3.13
2024-02-06T06:31:21.424Z,3.22
2024-02-06T06:35:23.378Z,3.10
2024-02-06T06:39:25.279Z,3.25
2024-02-06T06:43:30.308Z,3.38
2024-02-06T06:47:32.773Z,3.40
2024-02-06T06:51:35.151Z,2.93
2024-02-06T06:55:37.234Z,3.40
2024-02-06T06:59:39.106Z,3.40
2024-02-06T07:03:41.533Z,3.10
2024-02-06T07:07:43.928Z,2.78
2024-02-06T07:11:45.885Z,4.03
2024-02-06T07:15:47.989Z,6.72
2024-02-06T07:19:50.143Z,3.37
2024-02-06T07:23:54.077Z,4.67
2024-02-06T07:27:55.838Z,6.22
2024-02-06T07:31:57.890Z,3.47
2024-02-06T07:36:00.792Z,3.73
2024-02-06T07:40:05.497Z,4.90
2024-02-06T07:44:07.831Z,3.78
2024-02-06T07:48:10.066Z,4.77
2024-02-06T07:52:11.980Z,4.90
2024-02-06T07:56:13.918Z,4.07
2024-02-06T08:00:19.076Z,3.78
2024-02-06T08:04:21.277Z,4.55
2024-02-06T08:08:23.846Z,3.80
2024-02-06T08:12:26.236Z,3.95
2024-02-06T08:16:28.112Z,4.88
2024-02-06T08:20:30.252Z,3.72
2024-02-06T08:24:32.080Z,3.60
2024-02-06T08:28:36.271Z,4.70
2024-02-06T08:32:38.178Z,3.25
2024-02-06T08:36:40.058Z,4.35
2024-02-06T08:40:42.182Z,4.20
2024-02-06T08:44:44.423Z,3.72
2024-02-06T08:48:46.249Z,3.87
2024-02-06T08:52:49.527Z,4.57
2024-02-06T08:56:52.168Z,4.10
2024-02-06T09:00:54.006Z,3.78
2024-02-06T09:04:56.325Z,4.05
2024-02-06T09:09:01.821Z,4.03
2024-02-06T09:13:05.141Z,3.22
2024-02-06T09:17:08.370Z,3.28
2024-02-06T09:21:11.430Z,3.25
2024-02-06T09:25:15.004Z,4.60
2024-02-06T09:29:16.890Z,5.10
2024-02-06T09:33:19.023Z,5.20
2024-02-06T09:37:20.885Z,4.73
2024-02-06T09:41:24.013Z,4.22
2024-02-06T09:45:26.363Z,3.88
2024-02-06T09:49:30.009Z,4.17
2024-02-06T09:53:33.829Z,5.28
2024-02-06T09:57:38.910Z,4.80
2024-02-06T10:01:44.329Z,4.30
2024-02-06T10:05:49.781Z,4.95
2024-02-06T10:09:54.057Z,4.60
2024-02-06T10:13:56.988Z,4.00
2024-02-06T10:22:01.694Z,5.20
2024-02-06T10:26:04.801Z,4.35
2024-02-06T10:34:14.451Z,5.55
2024-02-06T10:38:17.626Z,7.22
2024-02-06T10:46:44.233Z,4.68
2024-02-06T10:50:56.240Z,5.32
2024-02-06T10:54:59.077Z,4.78
2024-02-06T10:59:05.647Z,4.18
2024-02-06T11:03:11.242Z,4.93
2024-02-06T11:07:16.143Z,4.25
2024-02-06T11:11:18.634Z,4.53
2024-02-06T11:15:22.073Z,4.53
2024-02-06T11:19:47.911Z,4.65
2024-02-06T11:23:51.751Z,5.47
2024-02-06T11:27:53.890Z,5.35
2024-02-06T11:31:56.213Z,6.47
2024-02-06T11:36:11.989Z,5.22
2024-02-06T11:40:16.030Z,6.07
2024-02-06T11:44:25.769Z,4.88
2024-02-06T11:48:28.202Z,5.93
2024-02-06T11:52:30.700Z,5.65
2024-02-06T11:56:32.636Z,5.93
2024-02-06T12:00:34.917Z,4.75
2024-02-06T12:04:37.833Z,5.73
2024-02-06T12:08:39.975Z,6.38
2024-02-06T12:12:43.246Z,6.40
2024-02-06T12:16:46.891Z,5.78
2024-02-06T12:20:49.271Z,8.13
2024-02-06T12:24:51.410Z,5.70
2024-02-06T12:29:04.124Z,6.43
2024-02-06T12:33:06.196Z,4.78
2024-02-06T12:37:08.960Z,4.27
2024-02-06T12:41:10.933Z,5.63
2024-02-06T12:45:14.697Z,5.00
2024-02-06T12:49:16.803Z,4.32
2024-02-06T12:53:27.430Z,4.53
2024-02-06T12:57:29.602Z,4.50
2024-02-06T13:01:31.508Z,5.10
2024-02-06T13:05:37.334Z,4.13
2024-02-06T13:09:39.691Z,5.20
2024-02-06T13:13:41.775Z,4.15
2024-02-06T13:17:44.693Z,3.85
2024-02-06T13:21:49.489Z,3.88
2024-02-06T13:25:51.771Z,8.52
2024-02-06T13:29:53.507Z,4.47
2024-02-06T13:33:55.596Z,5.38
2024-02-06T13:38:02.486Z,6.03
2024-02-06T13:42:04.843Z,5.40
2024-02-06T13:46:06.795Z,4.80
2024-02-06T13:50:10.728Z,4.20
2024-02-06T13:54:15.997Z,3.65
2024-02-06T13:58:17.951Z,2.92
2024-02-06T14:02:27.238Z,2.80
2024-02-06T14:06:30.534Z,4.00
2024-02-06T14:10:32.493Z,3.13
2024-02-06T14:14:34.680Z,2.53
2024-02-06T14:18:36.775Z,2.90
2024-02-06T14:22:38.770Z,3.10
2024-02-06T14:26:41.710Z,3.10
2024-02-06T14:30:46.385Z,4.38
2024-02-06T14:34:48.821Z,3.63
2024-02-06T14:38:52.449Z,3.30
2024-02-06T14:42:55.768Z,4.38
2024-02-06T14:46:57.949Z,2.97
2024-02-06T14:50:59.699Z,2.93
2024-02-06T14:55:01.715Z,3.58
2024-02-06T14:59:03.701Z,4.87
2024-02-06T15:03:07.670Z,3.92
2024-02-06T15:07:12.048Z,3.40
2024-02-06T15:11:14.169Z,3.28
2024-02-06T15:15:16.610Z,2.95
2024-02-06T15:19:18.576Z,3.40
2024-02-06T15:23:21.185Z,3.72
2024-02-06T15:27:23.398Z,2.58
2024-02-06T15:31:25.663Z,2.13
2024-02-06T15:35:30.430Z,2.75
2024-02-06T15:39:33.118Z,2.58
2024-02-06T15:43:35.445Z,2.40
2024-02-06T15:47:37.928Z,3.05
2024-02-06T15:51:40.146Z,3.40
2024-02-06T15:55:43.714Z,2.53
2024-02-06T15:59:46.710Z,3.13
2024-02-06T16:07:51.938Z,4.47
2024-02-06T16:11:54.303Z,3.78
2024-02-06T16:15:56.420Z,2.80
2024-02-06T16:19:58.692Z,3.07
2024-02-06T16:24:03.692Z,2.58
2024-02-06T16:28:06.672Z,2.83
2024-02-06T16:32:09.490Z,2.35
2024-02-06T16:36:13.785Z,2.40
2024-02-06T16:40:16.748Z,2.47
2024-02-06T16:48:20.471Z,3.45
2024-02-06T16:52:23.354Z,3.42
2024-02-06T16:56:25.423Z,2.95
2024-02-06T17:00:27.380Z,2.47
2024-02-06T17:04:29.992Z,3.17
2024-02-06T17:08:32.576Z,3.10
2024-02-06T17:12:34.476Z,3.83
2024-02-06T17:16:44.631Z,2.72
2024-02-06T17:20:47.078Z,2.53
2024-02-06T17:24:49.103Z,3.90
2024-02-06T17:28:51.192Z,2.70
2024-02-06T17:32:53.205Z,2.63
2024-02-06T17:36:55.093Z,3.08
2024-02-06T17:40:57.278Z,3.40
2024-02-06T17:44:59.116Z,3.40
2024-02-06T17:49:01.234Z,2.92
2024-02-06T17:53:03.307Z,3.80
2024-02-06T17:57:05.526Z,3.00
2024-02-06T18:01:07.562Z,3.23
2024-02-06T18:05:10.698Z,3.40
2024-02-06T18:09:18.603Z,2.28
2024-02-06T18:13:20.409Z,2.70
2024-02-06T18:17:22.495Z,2.97
2024-02-06T18:25:35.087Z,1.80
2024-02-06T18:33:39.313Z,2.38
2024-02-06T18:37:41.269Z,3.20
2024-02-06T18:41:44.084Z,2.20
2024-02-06T18:45:46.956Z,3.78
2024-02-06T18:49:48.975Z,2.40
2024-02-06T18:53:52.742Z,2.60
2024-02-06T18:57:54.620Z,2.80
2024-02-06T19:01:56.455Z,2.38
2024-02-06T19:06:01.818Z,2.75
2024-02-06T19:10:04.261Z,2.65
2024-02-06T19:14:06.124Z,2.47
2024-02-06T19:18:10.248Z,2.60
2024-02-06T19:22:12.375Z,2.45
2024-02-06T19:26:14.392Z,2.27
2024-02-06T19:30:16.551Z,3.47
2024-02-06T19:34:19.440Z,2.57
2024-02-06T19:42:23.415Z,3.90
2024-02-06T19:46:26.405Z,2.92
2024-02-06T19:50:29.606Z,4.32
2024-02-06T19:54:31.606Z,3.88
2024-02-06T19:58:33.943Z,4.55
2024-02-06T20:02:36.146Z,3.50
2024-02-06T20:06:41.357Z,4.83
2024-02-06T20:10:43.629Z,3.95
2024-02-06T20:14:45.976Z,3.58
2024-02-06T20:18:48.021Z,3.80
2024-02-06T20:22:50.175Z,4.07
2024-02-06T20:26:52.068Z,3.60
2024-02-06T20:30:55.050Z,3.45
2024-02-06T20:39:01.304Z,3.83
2024-02-06T20:43:03.622Z,3.80
2024-02-06T20:47:05.661Z,3.40
2024-02-06T20:51:07.921Z,3.20
2024-02-06T20:55:10.524Z,3.63
2024-02-06T20:59:12.413Z,3.65
2024-02-06T21:03:16.298Z,3.45
2024-02-06T21:07:20.719Z,4.43
2024-02-06T21:15:24.714Z,3.63
2024-02-06T21:19:26.841Z,4.28
2024-02-06T21:23:33.292Z,3.33
2024-02-06T21:27:37.382Z,3.08
2024-02-06T21:31:42.269Z,4.10
2024-02-06T21:35:44.726Z,4.20
2024-02-06T21:39:46.713Z,4.75
2024-02-06T21:43:49.625Z,3.65
2024-02-06T21:47:51.928Z,3.55
2024-02-06T21:51:55.069Z,4.10
2024-02-06T21:56:08.140Z,3.80
2024-02-06T22:00:14.963Z,3.35
2024-02-06T22:04:18.161Z,4.03
2024-02-06T22:08:20.297Z,3.47
2024-02-06T22:12:22.343Z,5.00
2024-02-06T22:16:24.377Z,3.47
2024-02-06T22:20:26.468Z,3.90
2024-02-06T22:24:30.273Z,3.93
2024-02-06T22:28:32.165Z,4.95
2024-02-06T22:32:34.246Z,3.65
2024-02-06T22:36:42.757Z,3.33
2024-02-06T22:40:46.597Z,3.90
2024-02-06T22:44:49.534Z,3.53
2024-02-06T22:48:51.556Z,3.88
2024-02-06T22:52:53.596Z,3.93
2024-02-06T22:56:55.501Z,4.05
2024-02-06T23:00:58.344Z,3.47
2024-02-06T23:05:01.084Z,2.95
2024-02-06T23:09:06.083Z,3.20
2024-02-06T23:13:08.121Z,4.28
2024-02-06T23:17:10.395Z,4.47
2024-02-06T23:21:16.312Z,3.80
2024-02-06T23:25:18.488Z,4.32
2024-02-06T23:29:20.263Z,4.17
2024-02-06T23:33:22.612Z,3.95
2024-02-06T23:37:26.216Z,4.57
2024-02-06T23:41:30.071Z,4.80
2024-02-06T23:45:32.022Z,4.38
2024-02-06T23:49:33.994Z,4.35
2024-02-06T23:53:36.589Z,3.95
2024-02-06T23:57:40.059Z,3.80
